sensor_id;sensor_type;location;lat;lon;timestamp;P1;durP1;ratioP1;P2;durP2;ratioP2
43297;SDS011;28892;55.640;37.532;2023-08-12T00:02:13;10.60;;;9.60;;
43297;SDS011;28892;55.640;37.532;2023-08-12T00:04:39;13.05;;;9.60;;
43297;SDS011;28892;55.640;37.532;2023-08-12T00:07:05;10.85;;;9.57;;
43297;SDS011;28892;55.640;37.532;2023-08-12T00:09:31;10.63;;;9.52;;
43297;SDS011;28892;55.640;37.532;2023-08-12T00:11:58;9.93;;;8.93;;
43297;SDS011;28892;55.640;37.532;2023-08-12T00:14:24;11.70;;;9.80;;
43297;SDS011;28892;55.640;37.532;2023-08-12T00:16:50;10.52;;;9.32;;
43297;SDS011;28892;55.640;37.532;2023-08-12T00:19:15;10.13;;;9.23;;
43297;SDS011;28892;55.640;37.532;2023-08-12T00:21:41;10.68;;;9.68;;
43297;SDS011;28892;55.640;37.532;2023-08-12T00:24:07;10.13;;;9.20;;
43297;SDS011;28892;55.640;37.532;2023-08-12T00:26:32;13.40;;;9.27;;
43297;SDS011;28892;55.640;37.532;2023-08-12T00:28:58;13.00;;;9.30;;
43297;SDS011;28892;55.640;37.532;2023-08-12T00:31:24;10.13;;;9.10;;
43297;SDS011;28892;55.640;37.532;2023-08-12T00:33:50;11.60;;;9.57;;
43297;SDS011;28892;55.640;37.532;2023-08-12T00:36:16;10.27;;;8.80;;
43297;SDS011;28892;55.640;37.532;2023-08-12T00:38:42;14.20;;;9.73;;
43297;SDS011;28892;55.640;37.532;2023-08-12T00:41:07;10.50;;;9.43;;
43297;SDS011;28892;55.640;37.532;2023-08-12T00:43:33;12.65;;;9.32;;
43297;SDS011;28892;55.640;37.532;2023-08-12T00:45:59;10.63;;;9.20;;
43297;SDS011;28892;55.640;37.532;2023-08-12T00:48:25;10.20;;;9.20;;
43297;SDS011;28892;55.640;37.532;2023-08-12T00:50:51;10.45;;;9.35;;
43297;SDS011;28892;55.640;37.532;2023-08-12T00:53:18;11.07;;;9.43;;
43297;SDS011;28892;55.640;37.532;2023-08-12T00:55:43;13.05;;;9.15;;
43297;SDS011;28892;55.640;37.532;2023-08-12T00:58:09;9.90;;;8.90;;
43297;SDS011;28892;55.640;37.532;2023-08-12T01:00:35;11.02;;;9.30;;
43297;SDS011;28892;55.640;37.532;2023-08-12T01:03:02;11.63;;;9.85;;
43297;SDS011;28892;55.640;37.532;2023-08-12T01:05:29;10.52;;;9.45;;
43297;SDS011;28892;55.640;37.532;2023-08-12T01:07:55;14.23;;;10.60;;
43297;SDS011;28892;55.640;37.532;2023-08-12T01:10:21;11.95;;;9.73;;
43297;SDS011;28892;55.640;37.532;2023-08-12T01:12:59;10.95;;;9.68;;
43297;SDS011;28892;55.640;37.532;2023-08-12T01:15:30;14.60;;;9.70;;
43297;SDS011;28892;55.640;37.532;2023-08-12T01:17:57;11.57;;;9.15;;
43297;SDS011;28892;55.640;37.532;2023-08-12T01:20:27;13.10;;;9.63;;
43297;SDS011;28892;55.640;37.532;2023-08-12T01:22:57;10.98;;;9.88;;
43297;SDS011;28892;55.640;37.532;2023-08-12T01:25:45;13.55;;;9.98;;
43297;SDS011;28892;55.640;37.532;2023-08-12T01:28:11;10.07;;;9.18;;
43297;SDS011;28892;55.640;37.532;2023-08-12T01:30:46;10.55;;;9.50;;
43297;SDS011;28892;55.640;37.532;2023-08-12T01:33:21;10.32;;;9.32;;
43297;SDS011;28892;55.640;37.532;2023-08-12T01:35:55;16.33;;;9.35;;
43297;SDS011;28892;55.640;37.532;2023-08-12T01:38:30;11.43;;;10.23;;
43297;SDS011;28892;55.640;37.532;2023-08-12T01:40:59;13.52;;;10.07;;
43297;SDS011;28892;55.640;37.532;2023-08-12T01:43:27;11.23;;;9.95;;
43297;SDS011;28892;55.640;37.532;2023-08-12T01:45:56;12.25;;;9.98;;
43297;SDS011;28892;55.640;37.532;2023-08-12T01:48:22;14.15;;;10.15;;
43297;SDS011;28892;55.640;37.532;2023-08-12T01:50:48;10.82;;;9.70;;
43297;SDS011;28892;55.640;37.532;2023-08-12T01:53:14;14.00;;;10.63;;
43297;SDS011;28892;55.640;37.532;2023-08-12T01:55:44;13.77;;;10.75;;
43297;SDS011;28892;55.640;37.532;2023-08-12T01:58:11;11.88;;;10.60;;
43297;SDS011;28892;55.640;37.532;2023-08-12T02:00:37;14.30;;;11.35;;
43297;SDS011;28892;55.640;37.532;2023-08-12T02:03:05;12.13;;;10.88;;
43297;SDS011;28892;55.640;37.532;2023-08-12T02:05:43;14.50;;;10.90;;
43297;SDS011;28892;55.640;37.532;2023-08-12T02:09:08;15.20;;;10.88;;
43297;SDS011;28892;55.640;37.532;2023-08-12T02:11:34;13.05;;;10.52;;
43297;SDS011;28892;55.640;37.532;2023-08-12T02:14:00;14.48;;;10.88;;
43297;SDS011;28892;55.640;37.532;2023-08-12T02:16:26;12.55;;;11.25;;
43297;SDS011;28892;55.640;37.532;2023-08-12T02:19:12;14.05;;;11.00;;
43297;SDS011;28892;55.640;37.532;2023-08-12T02:21:38;14.13;;;11.23;;
43297;SDS011;28892;55.640;37.532;2023-08-12T02:24:04;13.82;;;10.95;;
43297;SDS011;28892;55.640;37.532;2023-08-12T02:26:30;13.38;;;10.50;;
43297;SDS011;28892;55.640;37.532;2023-08-12T02:28:58;11.45;;;10.35;;
43297;SDS011;28892;55.640;37.532;2023-08-12T02:31:24;11.30;;;10.13;;
43297;SDS011;28892;55.640;37.532;2023-08-12T02:33:50;11.82;;;10.60;;
43297;SDS011;28892;55.640;37.532;2023-08-12T02:36:16;11.27;;;10.20;;
43297;SDS011;28892;55.640;37.532;2023-08-12T02:38:42;13.73;;;10.52;;
43297;SDS011;28892;55.640;37.532;2023-08-12T02:41:08;13.23;;;10.57;;
43297;SDS011;28892;55.640;37.532;2023-08-12T02:43:34;11.85;;;10.57;;
43297;SDS011;28892;55.640;37.532;2023-08-12T02:46:02;12.70;;;10.63;;
43297;SDS011;28892;55.640;37.532;2023-08-12T02:48:28;12.57;;;10.30;;
43297;SDS011;28892;55.640;37.532;2023-08-12T02:50:54;12.25;;;10.68;;
43297;SDS011;28892;55.640;37.532;2023-08-12T02:53:19;11.73;;;10.50;;
43297;SDS011;28892;55.640;37.532;2023-08-12T02:55:48;11.90;;;10.70;;
43297;SDS011;28892;55.640;37.532;2023-08-12T02:58:14;11.48;;;10.38;;
43297;SDS011;28892;55.640;37.532;2023-08-12T03:00:40;12.18;;;10.90;;
43297;SDS011;28892;55.640;37.532;2023-08-12T03:03:09;12.90;;;11.23;;
43297;SDS011;28892;55.640;37.532;2023-08-12T03:05:35;11.15;;;10.05;;
43297;SDS011;28892;55.640;37.532;2023-08-12T03:08:02;11.75;;;10.55;;
43297;SDS011;28892;55.640;37.532;2023-08-12T03:10:30;17.75;;;10.98;;
43297;SDS011;28892;55.640;37.532;2023-08-12T03:12:56;13.52;;;10.55;;
43297;SDS011;28892;55.640;37.532;2023-08-12T03:15:22;11.27;;;9.65;;
43297;SDS011;28892;55.640;37.532;2023-08-12T03:17:51;11.95;;;9.82;;
43297;SDS011;28892;55.640;37.532;2023-08-12T03:20:19;12.40;;;9.90;;
43297;SDS011;28892;55.640;37.532;2023-08-12T03:22:46;11.02;;;9.90;;
43297;SDS011;28892;55.640;37.532;2023-08-12T03:25:12;10.65;;;9.48;;
43297;SDS011;28892;55.640;37.532;2023-08-12T03:27:44;11.52;;;9.52;;
43297;SDS011;28892;55.640;37.532;2023-08-12T03:30:11;10.65;;;9.45;;
43297;SDS011;28892;55.640;37.532;2023-08-12T03:32:38;12.32;;;9.68;;
43297;SDS011;28892;55.640;37.532;2023-08-12T03:35:07;13.90;;;9.15;;
43297;SDS011;28892;55.640;37.532;2023-08-12T03:37:34;12.98;;;10.15;;
43297;SDS011;28892;55.640;37.532;2023-08-12T03:40:00;13.63;;;10.07;;
43297;SDS011;28892;55.640;37.532;2023-08-12T03:42:31;14.82;;;10.00;;
43297;SDS011;28892;55.640;37.532;2023-08-12T03:45:02;11.68;;;9.70;;
43297;SDS011;28892;55.640;37.532;2023-08-12T03:47:32;13.38;;;9.68;;
43297;SDS011;28892;55.640;37.532;2023-08-12T03:49:58;11.50;;;10.35;;
43297;SDS011;28892;55.640;37.532;2023-08-12T03:52:24;15.52;;;10.65;;
43297;SDS011;28892;55.640;37.532;2023-08-12T03:54:50;11.77;;;9.98;;
43297;SDS011;28892;55.640;37.532;2023-08-12T03:57:20;14.00;;;10.50;;
43297;SDS011;28892;55.640;37.532;2023-08-12T03:59:50;11.43;;;10.43;;
43297;SDS011;28892;55.640;37.532;2023-08-12T04:02:26;17.42;;;10.65;;
43297;SDS011;28892;55.640;37.532;2023-08-12T04:04:54;13.52;;;10.77;;
43297;SDS011;28892;55.640;37.532;2023-08-12T04:07:28;12.38;;;11.13;;
43297;SDS011;28892;55.640;37.532;2023-08-12T04:09:54;12.10;;;10.98;;
43297;SDS011;28892;55.640;37.532;2023-08-12T04:12:20;12.18;;;10.65;;
43297;SDS011;28892;55.640;37.532;2023-08-12T04:14:48;12.95;;;10.43;;
43297;SDS011;28892;55.640;37.532;2023-08-12T04:29:14;11.88;;;10.57;;
43297;SDS011;28892;55.640;37.532;2023-08-12T04:31:41;12.18;;;10.57;;
43297;SDS011;28892;55.640;37.532;2023-08-12T04:36:58;11.57;;;10.20;;
43297;SDS011;28892;55.640;37.532;2023-08-12T04:43:27;12.25;;;10.55;;
43297;SDS011;28892;55.640;37.532;2023-08-12T04:45:53;10.65;;;9.63;;
43297;SDS011;28892;55.640;37.532;2023-08-12T04:48:30;10.73;;;9.73;;
43297;SDS011;28892;55.640;37.532;2023-08-12T04:51:00;10.90;;;9.80;;
43297;SDS011;28892;55.640;37.532;2023-08-12T04:54:28;12.27;;;10.18;;
43297;SDS011;28892;55.640;37.532;2023-08-12T04:56:55;10.40;;;9.40;;
43297;SDS011;28892;55.640;37.532;2023-08-12T04:59:24;10.75;;;9.57;;
43297;SDS011;28892;55.640;37.532;2023-08-12T05:01:51;12.25;;;10.07;;
43297;SDS011;28892;55.640;37.532;2023-08-12T05:04:18;11.45;;;10.35;;
43297;SDS011;28892;55.640;37.532;2023-08-12T05:06:49;12.68;;;9.40;;
43297;SDS011;28892;55.640;37.532;2023-08-12T05:09:15;10.55;;;9.45;;
43297;SDS011;28892;55.640;37.532;2023-08-12T05:11:42;11.45;;;9.07;;
43297;SDS011;28892;55.640;37.532;2023-08-12T05:14:08;12.35;;;8.73;;
43297;SDS011;28892;55.640;37.532;2023-08-12T05:16:34;12.30;;;9.88;;
43297;SDS011;28892;55.640;37.532;2023-08-12T05:19:00;10.90;;;8.98;;
43297;SDS011;28892;55.640;37.532;2023-08-12T05:21:26;9.90;;;9.00;;
43297;SDS011;28892;55.640;37.532;2023-08-12T05:23:55;11.25;;;9.55;;
43297;SDS011;28892;55.640;37.532;2023-08-12T05:26:33;12.52;;;9.52;;
43297;SDS011;28892;55.640;37.532;2023-08-12T05:28:59;11.30;;;9.43;;
43297;SDS011;28892;55.640;37.532;2023-08-12T05:31:25;11.48;;;9.02;;
43297;SDS011;28892;55.640;37.532;2023-08-12T05:33:53;11.88;;;8.80;;
43297;SDS011;28892;55.640;37.532;2023-08-12T05:36:19;10.75;;;9.38;;
43297;SDS011;28892;55.640;37.532;2023-08-12T05:38:47;12.40;;;9.50;;
43297;SDS011;28892;55.640;37.532;2023-08-12T05:41:13;12.00;;;9.40;;
43297;SDS011;28892;55.640;37.532;2023-08-12T05:43:42;10.55;;;9.27;;
43297;SDS011;28892;55.640;37.532;2023-08-12T05:46:11;9.77;;;8.70;;
43297;SDS011;28892;55.640;37.532;2023-08-12T05:48:37;10.55;;;9.15;;
43297;SDS011;28892;55.640;37.532;2023-08-12T05:51:02;16.58;;;9.45;;
43297;SDS011;28892;55.640;37.532;2023-08-12T05:53:29;12.40;;;9.10;;
43297;SDS011;28892;55.640;37.532;2023-08-12T05:55:55;10.57;;;9.55;;
43297;SDS011;28892;55.640;37.532;2023-08-12T05:58:21;9.82;;;8.82;;
43297;SDS011;28892;55.640;37.532;2023-08-12T06:00:47;10.13;;;8.80;;
43297;SDS011;28892;55.640;37.532;2023-08-12T06:03:19;13.73;;;9.20;;
43297;SDS011;28892;55.640;37.532;2023-08-12T06:05:46;12.35;;;9.88;;
43297;SDS011;28892;55.640;37.532;2023-08-12T06:08:15;12.23;;;9.45;;
43297;SDS011;28892;55.640;37.532;2023-08-12T06:11:02;10.07;;;9.07;;
43297;SDS011;28892;55.640;37.532;2023-08-12T06:14:18;12.00;;;9.48;;
43297;SDS011;28892;55.640;37.532;2023-08-12T06:16:45;13.15;;;9.52;;
43297;SDS011;28892;55.640;37.532;2023-08-12T06:19:11;14.70;;;9.23;;
43297;SDS011;28892;55.640;37.532;2023-08-12T06:21:37;13.68;;;10.00;;
43297;SDS011;28892;55.640;37.532;2023-08-12T06:24:07;12.25;;;9.02;;
43297;SDS011;28892;55.640;37.532;2023-08-12T06:26:34;13.98;;;8.90;;
43297;SDS011;28892;55.640;37.532;2023-08-12T06:29:36;15.27;;;10.23;;
43297;SDS011;28892;55.640;37.532;2023-08-12T06:32:09;13.00;;;9.57;;
43297;SDS011;28892;55.640;37.532;2023-08-12T06:35:03;10.70;;;8.93;;
43297;SDS011;28892;55.640;37.532;2023-08-12T06:41:24;11.23;;;9.32;;
43297;SDS011;28892;55.640;37.532;2023-08-12T06:43:50;11.05;;;9.00;;
43297;SDS011;28892;55.640;37.532;2023-08-12T06:46:22;13.88;;;9.32;;
43297;SDS011;28892;55.640;37.532;2023-08-12T06:48:49;10.27;;;9.15;;
43297;SDS011;28892;55.640;37.532;2023-08-12T06:51:15;10.80;;;9.75;;
43297;SDS011;28892;55.640;37.532;2023-08-12T06:53:43;11.27;;;9.45;;
43297;SDS011;28892;55.640;37.532;2023-08-12T06:56:09;10.43;;;8.57;;
43297;SDS011;28892;55.640;37.532;2023-08-12T06:58:35;11.38;;;9.38;;
43297;SDS011;28892;55.640;37.532;2023-08-12T07:01:04;11.88;;;9.07;;
43297;SDS011;28892;55.640;37.532;2023-08-12T07:03:33;10.32;;;8.85;;
43297;SDS011;28892;55.640;37.532;2023-08-12T07:05:59;11.68;;;8.45;;
43297;SDS011;28892;55.640;37.532;2023-08-12T07:08:30;9.30;;;8.40;;
43297;SDS011;28892;55.640;37.532;2023-08-12T07:10:56;11.63;;;8.75;;
43297;SDS011;28892;55.640;37.532;2023-08-12T07:13:22;9.40;;;8.20;;
43297;SDS011;28892;55.640;37.532;2023-08-12T07:15:48;9.50;;;8.48;;
43297;SDS011;28892;55.640;37.532;2023-08-12T07:18:14;12.35;;;8.13;;
43297;SDS011;28892;55.640;37.532;2023-08-12T07:20:40;9.45;;;8.60;;
43297;SDS011;28892;55.640;37.532;2023-08-12T07:23:06;10.65;;;8.02;;
43297;SDS011;28892;55.640;37.532;2023-08-12T07:25:32;9.27;;;8.23;;
43297;SDS011;28892;55.640;37.532;2023-08-12T07:27:58;10.23;;;8.27;;
43297;SDS011;28892;55.640;37.532;2023-08-12T07:30:24;8.88;;;8.05;;
43297;SDS011;28892;55.640;37.532;2023-08-12T07:32:50;8.88;;;7.85;;
43297;SDS011;28892;55.640;37.532;2023-08-12T07:35:16;10.98;;;7.45;;
43297;SDS011;28892;55.640;37.532;2023-08-12T07:37:41;9.82;;;7.78;;
43297;SDS011;28892;55.640;37.532;2023-08-12T07:40:07;13.10;;;7.90;;
43297;SDS011;28892;55.640;37.532;2023-08-12T07:42:34;9.40;;;8.02;;
43297;SDS011;28892;55.640;37.532;2023-08-12T07:45:00;9.30;;;8.10;;
43297;SDS011;28892;55.640;37.532;2023-08-12T07:47:25;11.02;;;8.27;;
43297;SDS011;28892;55.640;37.532;2023-08-12T07:49:51;9.95;;;7.95;;
43297;SDS011;28892;55.640;37.532;2023-08-12T07:52:17;12.27;;;8.00;;
43297;SDS011;28892;55.640;37.532;2023-08-12T07:54:43;10.68;;;8.15;;
43297;SDS011;28892;55.640;37.532;2023-08-12T07:57:09;10.30;;;7.70;;
43297;SDS011;28892;55.640;37.532;2023-08-12T07:59:35;11.02;;;8.35;;
43297;SDS011;28892;55.640;37.532;2023-08-12T08:02:01;12.18;;;8.32;;
43297;SDS011;28892;55.640;37.532;2023-08-12T08:04:26;12.00;;;8.93;;
43297;SDS011;28892;55.640;37.532;2023-08-12T08:06:52;13.80;;;8.95;;
43297;SDS011;28892;55.640;37.532;2023-08-12T08:09:18;13.30;;;9.25;;
43297;SDS011;28892;55.640;37.532;2023-08-12T08:11:44;12.02;;;9.68;;
43297;SDS011;28892;55.640;37.532;2023-08-12T08:14:10;16.13;;;11.23;;
43297;SDS011;28892;55.640;37.532;2023-08-12T08:16:36;23.35;;;17.17;;
43297;SDS011;28892;55.640;37.532;2023-08-12T08:19:02;21.33;;;15.63;;
43297;SDS011;28892;55.640;37.532;2023-08-12T08:21:30;17.45;;;13.20;;
43297;SDS011;28892;55.640;37.532;2023-08-12T08:23:56;16.52;;;12.65;;
43297;SDS011;28892;55.640;37.532;2023-08-12T08:26:22;14.95;;;12.95;;
43297;SDS011;28892;55.640;37.532;2023-08-12T08:28:47;13.95;;;11.02;;
43297;SDS011;28892;55.640;37.532;2023-08-12T08:31:22;17.25;;;11.15;;
43297;SDS011;28892;55.640;37.532;2023-08-12T08:33:47;14.05;;;10.13;;
43297;SDS011;28892;55.640;37.532;2023-08-12T08:36:13;16.20;;;11.15;;
43297;SDS011;28892;55.640;37.532;2023-08-12T08:38:39;12.90;;;10.02;;
43297;SDS011;28892;55.640;37.532;2023-08-12T08:41:11;11.23;;;9.63;;
43297;SDS011;28892;55.640;37.532;2023-08-12T08:43:37;10.55;;;9.55;;
43297;SDS011;28892;55.640;37.532;2023-08-12T08:46:19;11.02;;;9.65;;
43297;SDS011;28892;55.640;37.532;2023-08-12T08:48:48;14.88;;;10.23;;
43297;SDS011;28892;55.640;37.532;2023-08-12T08:51:17;13.43;;;11.30;;
43297;SDS011;28892;55.640;37.532;2023-08-12T08:53:43;13.15;;;10.52;;
43297;SDS011;28892;55.640;37.532;2023-08-12T08:56:12;16.20;;;10.15;;
43297;SDS011;28892;55.640;37.532;2023-08-12T08:58:38;11.88;;;10.68;;
43297;SDS011;28892;55.640;37.532;2023-08-12T09:01:07;11.13;;;9.48;;
43297;SDS011;28892;55.640;37.532;2023-08-12T09:03:39;12.48;;;10.25;;
43297;SDS011;28892;55.640;37.532;2023-08-12T09:06:08;15.20;;;10.43;;
43297;SDS011;28892;55.640;37.532;2023-08-12T09:08:34;14.77;;;11.10;;
43297;SDS011;28892;55.640;37.532;2023-08-12T09:11:05;15.50;;;9.55;;
43297;SDS011;28892;55.640;37.532;2023-08-12T09:13:35;15.02;;;10.75;;
43297;SDS011;28892;55.640;37.532;2023-08-12T09:16:03;12.30;;;10.10;;
43297;SDS011;28892;55.640;37.532;2023-08-12T09:18:29;11.27;;;10.13;;
43297;SDS011;28892;55.640;37.532;2023-08-12T09:20:55;11.52;;;10.05;;
43297;SDS011;28892;55.640;37.532;2023-08-12T09:23:21;11.80;;;10.30;;
43297;SDS011;28892;55.640;37.532;2023-08-12T09:25:51;10.52;;;9.52;;
43297;SDS011;28892;55.640;37.532;2023-08-12T09:28:17;9.98;;;8.98;;
43297;SDS011;28892;55.640;37.532;2023-08-12T09:30:43;12.15;;;9.75;;
43297;SDS011;28892;55.640;37.532;2023-08-12T09:33:29;11.27;;;9.55;;
43297;SDS011;28892;55.640;37.532;2023-08-12T09:35:58;11.38;;;9.93;;
43297;SDS011;28892;55.640;37.532;2023-08-12T09:38:30;13.27;;;9.95;;
43297;SDS011;28892;55.640;37.532;2023-08-12T09:41:02;14.57;;;10.13;;
43297;SDS011;28892;55.640;37.532;2023-08-12T09:43:30;11.00;;;9.90;;
43297;SDS011;28892;55.640;37.532;2023-08-12T09:46:29;12.32;;;9.93;;
43297;SDS011;28892;55.640;37.532;2023-08-12T09:49:09;10.85;;;9.82;;
43297;SDS011;28892;55.640;37.532;2023-08-12T09:52:16;15.15;;;11.93;;
43297;SDS011;28892;55.640;37.532;2023-08-12T09:54:46;14.25;;;11.52;;
43297;SDS011;28892;55.640;37.532;2023-08-12T09:57:39;15.18;;;11.10;;
43297;SDS011;28892;55.640;37.532;2023-08-12T10:00:14;14.82;;;11.48;;
43297;SDS011;28892;55.640;37.532;2023-08-12T10:03:21;14.40;;;10.80;;
43297;SDS011;28892;55.640;37.532;2023-08-12T10:05:58;15.68;;;11.27;;
43297;SDS011;28892;55.640;37.532;2023-08-12T10:08:51;12.25;;;10.90;;
43297;SDS011;28892;55.640;37.532;2023-08-12T10:11:25;12.30;;;11.00;;
43297;SDS011;28892;55.640;37.532;2023-08-12T10:14:08;11.93;;;10.75;;
43297;SDS011;28892;55.640;37.532;2023-08-12T10:16:47;11.80;;;10.68;;
43297;SDS011;28892;55.640;37.532;2023-08-12T10:19:29;13.82;;;11.85;;
43297;SDS011;28892;55.640;37.532;2023-08-12T10:22:07;18.02;;;14.05;;
43297;SDS011;28892;55.640;37.532;2023-08-12T10:24:38;15.48;;;13.75;;
43297;SDS011;28892;55.640;37.532;2023-08-12T10:27:06;16.50;;;12.82;;
43297;SDS011;28892;55.640;37.532;2023-08-12T10:29:33;16.15;;;13.45;;
43297;SDS011;28892;55.640;37.532;2023-08-12T10:32:08;15.00;;;12.45;;
43297;SDS011;28892;55.640;37.532;2023-08-12T10:34:38;18.08;;;13.55;;
43297;SDS011;28892;55.640;37.532;2023-08-12T10:37:05;16.15;;;13.77;;
43297;SDS011;28892;55.640;37.532;2023-08-12T10:39:33;15.48;;;13.90;;
43297;SDS011;28892;55.640;37.532;2023-08-12T10:42:08;16.30;;;13.85;;
43297;SDS011;28892;55.640;37.532;2023-08-12T10:44:40;14.02;;;12.63;;
43297;SDS011;28892;55.640;37.532;2023-08-12T10:50:26;14.20;;;11.52;;
43297;SDS011;28892;55.640;37.532;2023-08-12T10:56:11;13.35;;;11.55;;
43297;SDS011;28892;55.640;37.532;2023-08-12T10:58:49;14.07;;;11.60;;
43297;SDS011;28892;55.640;37.532;2023-08-12T11:01:21;13.73;;;11.45;;
43297;SDS011;28892;55.640;37.532;2023-08-12T11:07:22;12.68;;;11.45;;
43297;SDS011;28892;55.640;37.532;2023-08-12T11:10:19;11.73;;;10.68;;
43297;SDS011;28892;55.640;37.532;2023-08-12T11:12:55;12.80;;;11.55;;
43297;SDS011;28892;55.640;37.532;2023-08-12T11:24:40;12.50;;;11.30;;
43297;SDS011;28892;55.640;37.532;2023-08-12T11:27:09;10.13;;;8.88;;
43297;SDS011;28892;55.640;37.532;2023-08-12T11:29:37;12.85;;;10.80;;
43297;SDS011;28892;55.640;37.532;2023-08-12T11:32:06;13.00;;;10.75;;
43297;SDS011;28892;55.640;37.532;2023-08-12T11:34:35;12.48;;;10.80;;
43297;SDS011;28892;55.640;37.532;2023-08-12T11:37:02;13.50;;;10.75;;
43297;SDS011;28892;55.640;37.532;2023-08-12T11:39:29;10.93;;;9.88;;
43297;SDS011;28892;55.640;37.532;2023-08-12T11:41:55;14.20;;;12.00;;
43297;SDS011;28892;55.640;37.532;2023-08-12T11:44:23;12.48;;;11.18;;
43297;SDS011;28892;55.640;37.532;2023-08-12T11:46:51;12.80;;;11.60;;
43297;SDS011;28892;55.640;37.532;2023-08-12T11:49:18;12.88;;;11.57;;
43297;SDS011;28892;55.640;37.532;2023-08-12T11:51:44;14.13;;;11.45;;
43297;SDS011;28892;55.640;37.532;2023-08-12T11:54:14;15.02;;;11.25;;
43297;SDS011;28892;55.640;37.532;2023-08-12T11:56:40;13.15;;;11.85;;
43297;SDS011;28892;55.640;37.532;2023-08-12T11:59:15;11.35;;;10.30;;
43297;SDS011;28892;55.640;37.532;2023-08-12T12:01:41;11.90;;;10.75;;
43297;SDS011;28892;55.640;37.532;2023-08-12T12:04:14;15.63;;;12.25;;
43297;SDS011;28892;55.640;37.532;2023-08-12T12:07:21;12.02;;;10.93;;
43297;SDS011;28892;55.640;37.532;2023-08-12T12:10:21;9.80;;;8.18;;
43297;SDS011;28892;55.640;37.532;2023-08-12T12:12:56;12.18;;;10.57;;
43297;SDS011;28892;55.640;37.532;2023-08-12T12:15:47;9.63;;;8.35;;
43297;SDS011;28892;55.640;37.532;2023-08-12T12:18:57;11.05;;;9.85;;
43297;SDS011;28892;55.640;37.532;2023-08-12T12:21:28;11.27;;;9.25;;
43297;SDS011;28892;55.640;37.532;2023-08-12T12:23:54;11.60;;;10.30;;
43297;SDS011;28892;55.640;37.532;2023-08-12T12:26:22;11.43;;;10.05;;
43297;SDS011;28892;55.640;37.532;2023-08-12T12:28:51;11.93;;;10.70;;
43297;SDS011;28892;55.640;37.532;2023-08-12T12:31:16;13.90;;;9.77;;
43297;SDS011;28892;55.640;37.532;2023-08-12T12:36:40;10.68;;;9.57;;
43297;SDS011;28892;55.640;37.532;2023-08-12T12:39:11;14.50;;;10.82;;
43297;SDS011;28892;55.640;37.532;2023-08-12T12:42:09;14.52;;;11.07;;
43297;SDS011;28892;55.640;37.532;2023-08-12T12:44:39;10.68;;;9.57;;
43297;SDS011;28892;55.640;37.532;2023-08-12T12:47:14;11.35;;;10.25;;
43297;SDS011;28892;55.640;37.532;2023-08-12T12:49:57;10.25;;;9.10;;
43297;SDS011;28892;55.640;37.532;2023-08-12T12:52:23;12.30;;;9.98;;
43297;SDS011;28892;55.640;37.532;2023-08-12T12:54:49;11.50;;;10.32;;
43297;SDS011;28892;55.640;37.532;2023-08-12T12:57:15;9.98;;;9.07;;
43297;SDS011;28892;55.640;37.532;2023-08-12T12:59:41;10.57;;;9.48;;
43297;SDS011;28892;55.640;37.532;2023-08-12T13:02:07;10.98;;;9.98;;
43297;SDS011;28892;55.640;37.532;2023-08-12T13:04:33;11.18;;;9.10;;
43297;SDS011;28892;55.640;37.532;2023-08-12T13:07:04;11.48;;;9.48;;
43297;SDS011;28892;55.640;37.532;2023-08-12T13:09:30;10.43;;;9.43;;
43297;SDS011;28892;55.640;37.532;2023-08-12T13:11:56;10.40;;;9.35;;
43297;SDS011;28892;55.640;37.532;2023-08-12T13:14:25;8.15;;;7.32;;
43297;SDS011;28892;55.640;37.532;2023-08-12T13:16:51;12.05;;;8.52;;
43297;SDS011;28892;55.640;37.532;2023-08-12T13:19:17;9.55;;;8.55;;
43297;SDS011;28892;55.640;37.532;2023-08-12T13:21:43;8.95;;;8.05;;
43297;SDS011;28892;55.640;37.532;2023-08-12T13:24:09;10.43;;;8.43;;
43297;SDS011;28892;55.640;37.532;2023-08-12T13:26:35;10.30;;;9.27;;
43297;SDS011;28892;55.640;37.532;2023-08-12T13:29:00;9.65;;;8.63;;
43297;SDS011;28892;55.640;37.532;2023-08-12T13:31:34;9.13;;;8.23;;
43297;SDS011;28892;55.640;37.532;2023-08-12T13:34:13;9.88;;;7.65;;
43297;SDS011;28892;55.640;37.532;2023-08-12T13:36:40;9.13;;;8.13;;
43297;SDS011;28892;55.640;37.532;2023-08-12T13:39:06;9.77;;;8.88;;
43297;SDS011;28892;55.640;37.532;2023-08-12T13:41:35;12.93;;;9.43;;
43297;SDS011;28892;55.640;37.532;2023-08-12T13:44:01;10.18;;;9.27;;
43297;SDS011;28892;55.640;37.532;2023-08-12T13:46:27;9.57;;;8.65;;
43297;SDS011;28892;55.640;37.532;2023-08-12T13:48:55;10.05;;;9.10;;
43297;SDS011;28892;55.640;37.532;2023-08-12T13:51:21;9.70;;;8.70;;
43297;SDS011;28892;55.640;37.532;2023-08-12T13:53:48;11.63;;;8.70;;
43297;SDS011;28892;55.640;37.532;2023-08-12T13:56:13;10.43;;;9.27;;
43297;SDS011;28892;55.640;37.532;2023-08-12T13:58:40;11.00;;;9.40;;
43297;SDS011;28892;55.640;37.532;2023-08-12T14:01:05;10.73;;;9.73;;
43297;SDS011;28892;55.640;37.532;2023-08-12T14:03:32;10.25;;;9.20;;
43297;SDS011;28892;55.640;37.532;2023-08-12T14:05:58;11.73;;;9.98;;
43297;SDS011;28892;55.640;37.532;2023-08-12T14:08:24;10.32;;;9.40;;
43297;SDS011;28892;55.640;37.532;2023-08-12T14:10:50;10.70;;;9.60;;
43297;SDS011;28892;55.640;37.532;2023-08-12T14:13:16;10.43;;;9.32;;
43297;SDS011;28892;55.640;37.532;2023-08-12T14:15:41;11.18;;;10.07;;
43297;SDS011;28892;55.640;37.532;2023-08-12T14:18:07;10.38;;;9.25;;
43297;SDS011;28892;55.640;37.532;2023-08-12T14:20:33;11.43;;;10.25;;
43297;SDS011;28892;55.640;37.532;2023-08-12T14:22:59;11.25;;;10.00;;
43297;SDS011;28892;55.640;37.532;2023-08-12T14:25:25;12.35;;;9.40;;
43297;SDS011;28892;55.640;37.532;2023-08-12T14:27:52;11.50;;;10.30;;
43297;SDS011;28892;55.640;37.532;2023-08-12T14:30:18;10.88;;;9.82;;
43297;SDS011;28892;55.640;37.532;2023-08-12T14:32:48;11.63;;;9.40;;
43297;SDS011;28892;55.640;37.532;2023-08-12T14:35:17;12.95;;;9.20;;
43297;SDS011;28892;55.640;37.532;2023-08-12T14:37:43;11.13;;;10.02;;
43297;SDS011;28892;55.640;37.532;2023-08-12T14:40:09;12.10;;;9.75;;
43297;SDS011;28892;55.640;37.532;2023-08-12T14:42:35;10.40;;;9.43;;
43297;SDS011;28892;55.640;37.532;2023-08-12T14:45:01;10.05;;;9.02;;
43297;SDS011;28892;55.640;37.532;2023-08-12T14:47:30;9.18;;;8.25;;
43297;SDS011;28892;55.640;37.532;2023-08-12T14:49:56;10.10;;;8.35;;
43297;SDS011;28892;55.640;37.532;2023-08-12T14:52:24;11.30;;;9.63;;
43297;SDS011;28892;55.640;37.532;2023-08-12T14:54:50;11.93;;;8.05;;
43297;SDS011;28892;55.640;37.532;2023-08-12T14:57:16;9.93;;;8.07;;
43297;SDS011;28892;55.640;37.532;2023-08-12T14:59:42;9.95;;;8.07;;
43297;SDS011;28892;55.640;37.532;2023-08-12T15:02:08;9.45;;;8.52;;
43297;SDS011;28892;55.640;37.532;2023-08-12T15:04:34;10.13;;;8.98;;
43297;SDS011;28892;55.640;37.532;2023-08-12T15:07:00;10.60;;;7.90;;
43297;SDS011;28892;55.640;37.532;2023-08-12T15:09:27;9.82;;;7.70;;
43297;SDS011;28892;55.640;37.532;2023-08-12T15:11:53;8.45;;;7.53;;
43297;SDS011;28892;55.640;37.532;2023-08-12T15:14:18;9.10;;;7.20;;
43297;SDS011;28892;55.640;37.532;2023-08-12T15:16:44;11.70;;;7.72;;
43297;SDS011;28892;55.640;37.532;2023-08-12T15:19:10;7.78;;;7.03;;